Weather History for Oelwein, IA

Change the Weather History Date:

Saturday, July 13, 2013

  Actual Average Record
Temperature  
Mean Temperature 68 °F -  
Max Temperature 75 °F 83 °F 95 °F (1976)
Min Temperature 62 °F 63 °F 40 °F (1975)
Cooling Degree Days 4    
Growing Degree Days 18 (Base 50)    
Moisture  
Dew Point 61 °F    
Average Humidity 78    
Maximum Humidity 88    
Minimum Humidity 61    
Precipitation  
Precipitation 0.02 in - - ()
Sea Level Pressure  
Sea Level Pressure 30.11 in    
Wind  
Wind Speed 8 mph (SSE)    
Max Wind Speed 15 mph    
Max Gust Speed 21 mph    
Visibility 10 miles    
Events      
Averages and records for this station are not official NWS values.
T = Trace of Precipitation, MM = Missing Value Source: NWS Daily Summary

Daily Weather History Graph

Daily Weather History Graph

Search for Another Location

Airport:

Trip Planner

Search our weather history database for the weather conditions in past years. The results will help you decide how hot, cold, wet, or windy it might be!

Date:

Astronomy

Jul. 13, 2013 Rise Set
Actual Time 5:41 AM CDT 8:44 PM CDT
Civil Twilight 5:07 AM CDT 9:18 PM CDT
Nautical Twilight 4:24 AM CDT 10:02 PM CDT
Astronomical Twilight 3:32 AM CDT 10:53 PM CDT
Moon 11:06 AM CDT (7/13) 11:16 PM CDT (7/13)
Length of Visible Light 16h 10m
Length of Day
15h 03m
Waxing Crescent, 26% of the Moon is Illuminated
Jul 13
Waxing Crescent
Jul 15
First Quarter
Jul 22
Full
Jul 29
Last Quarter
Aug 6
New

Hourly Weather History & Observations

Time (CDT) Temp. Dew Point Humidity Pressure Visibility Wind Dir Wind Speed Gust Speed Precip Events Conditions
12:15 AM 66.2 °F 59.0 °F 78% 30.08 in 10.0 mi SSE 8.1 mph - N/A   Clear
12:35 AM 66.2 °F 59.0 °F 78% 30.09 in 10.0 mi SSE 8.1 mph - N/A   Clear
12:55 AM 66.2 °F 59.0 °F 78% 30.09 in 10.0 mi SSE 8.1 mph - N/A   Clear
1:15 AM 64.4 °F 59.0 °F 83% 30.09 in 10.0 mi SSE 6.9 mph - N/A   Clear
1:35 AM 64.4 °F 59.0 °F 83% 30.09 in 10.0 mi SSE 8.1 mph - N/A   Clear
1:55 AM 64.4 °F 59.0 °F 83% 30.08 in 10.0 mi SSE 8.1 mph - N/A   Clear
2:15 AM 64.4 °F 59.0 °F 83% 30.08 in 10.0 mi SSE 8.1 mph - N/A   Clear
2:35 AM 64.4 °F 59.0 °F 83% 30.07 in 10.0 mi SSE 9.2 mph - N/A   Clear
2:55 AM 64.4 °F 59.0 °F 83% 30.07 in 10.0 mi SSE 10.4 mph - N/A   Partly Cloudy
3:15 AM 64.4 °F 59.0 °F 83% 30.09 in 10.0 mi SSE 6.9 mph - N/A   Scattered Clouds
3:35 AM 64.4 °F 59.0 °F 83% 30.09 in 10.0 mi SSE 9.2 mph - N/A   Scattered Clouds
3:55 AM 64.4 °F 59.0 °F 83% 30.09 in 10.0 mi SSE 6.9 mph - N/A   Mostly Cloudy
4:15 AM 64.4 °F 59.0 °F 83% 30.08 in 10.0 mi SSE 9.2 mph - N/A   Mostly Cloudy
4:35 AM 64.4 °F 59.0 °F 83% 30.07 in 10.0 mi SSE 9.2 mph - N/A   Mostly Cloudy
4:55 AM 64.4 °F 59.0 °F 83% 30.08 in 10.0 mi South 8.1 mph - N/A   Partly Cloudy
5:15 AM 62.6 °F 59.0 °F 88% 30.08 in 10.0 mi SSE 6.9 mph - N/A   Partly Cloudy
5:35 AM 62.6 °F 59.0 °F 88% 30.09 in 10.0 mi SSE 6.9 mph - N/A   Mostly Cloudy
5:55 AM 62.6 °F 59.0 °F 88% 30.09 in 10.0 mi SSE 6.9 mph - N/A   Mostly Cloudy
6:15 AM 64.4 °F 59.0 °F 83% 30.09 in 10.0 mi SSE 9.2 mph - N/A   Partly Cloudy
6:35 AM 64.4 °F 59.0 °F 83% 30.09 in 10.0 mi SSE 9.2 mph - N/A   Clear
6:55 AM 64.4 °F 59.0 °F 83% 30.10 in 10.0 mi SSE 9.2 mph - N/A   Clear
7:15 AM 64.4 °F 59.0 °F 83% 30.12 in 10.0 mi SSE 8.1 mph - N/A   Clear
7:35 AM 64.4 °F 59.0 °F 83% 30.12 in 10.0 mi SSE 8.1 mph - N/A   Partly Cloudy
7:55 AM 66.2 °F 57.2 °F 73% 30.12 in 10.0 mi SSE 9.2 mph - N/A   Scattered Clouds
8:15 AM 66.2 °F 57.2 °F 73% 30.10 in 10.0 mi SSE 10.4 mph - N/A   Partly Cloudy
8:35 AM 66.2 °F 57.2 °F 73% 30.11 in 10.0 mi South 8.1 mph 15.0 mph N/A   Clear
8:55 AM 66.2 °F 57.2 °F 73% 30.12 in 10.0 mi SSE 9.2 mph - N/A   Clear
9:15 AM 66.2 °F 57.2 °F 73% 30.12 in 10.0 mi SSE 8.1 mph - N/A   Partly Cloudy
9:35 AM 66.2 °F 57.2 °F 73% 30.13 in 10.0 mi SSE 8.1 mph - N/A   Clear
9:55 AM 66.2 °F 57.2 °F 73% 30.15 in 10.0 mi SSE 5.8 mph - N/A   Scattered Clouds
10:15 AM 66.2 °F 59.0 °F 78% 30.16 in 8.0 mi Calm Calm - N/A   Light Drizzle
10:35 AM 66.2 °F 60.8 °F 83% 30.16 in 10.0 mi ESE 9.2 mph - N/A   Light Drizzle
10:55 AM 64.4 °F 60.8 °F 88% 30.16 in 10.0 mi ESE 8.1 mph - 0.01 in   Light Drizzle
11:15 AM 66.2 °F 60.8 °F 83% 30.14 in 10.0 mi SE 9.2 mph - N/A   Light Drizzle
11:35 AM 66.2 °F 60.8 °F 83% 30.15 in 10.0 mi SE 5.8 mph - N/A   Clear
11:55 AM 66.2 °F 60.8 °F 83% 30.17 in 10.0 mi Calm Calm - 0.01 in   Clear
12:15 PM 66.2 °F 60.8 °F 83% 30.17 in 10.0 mi Calm Calm - N/A   Clear
12:35 PM 66.2 °F 62.6 °F 88% 30.18 in 10.0 mi WSW 3.5 mph - N/A   Clear
12:55 PM 66.2 °F 62.6 °F 88% 30.15 in 9.0 mi SW 5.8 mph - N/A   Clear
1:15 PM 68.0 °F 62.6 °F 83% 30.16 in 10.0 mi SSE 4.6 mph - N/A   Clear
1:35 PM 68.0 °F 62.6 °F 83% 30.14 in 10.0 mi South 9.2 mph - N/A   Clear
1:55 PM 68.0 °F 62.6 °F 83% 30.12 in 10.0 mi South 11.5 mph - N/A   Clear
2:15 PM 69.8 °F 62.6 °F 78% 30.10 in 10.0 mi SSE 11.5 mph - N/A   Scattered Clouds
2:35 PM 69.8 °F 62.6 °F 78% 30.09 in 10.0 mi SSE 15.0 mph - N/A   Partly Cloudy
2:55 PM 71.6 °F 60.8 °F 69% 30.09 in 10.0 mi South 12.7 mph 19.6 mph N/A   Partly Cloudy
3:15 PM 73.4 °F 60.8 °F 65% 30.09 in 10.0 mi SSE 15.0 mph - N/A   Clear
3:35 PM 73.4 °F 60.8 °F 65% 30.09 in 10.0 mi SSE 11.5 mph 19.6 mph N/A   Clear
3:55 PM 73.4 °F 59.0 °F 61% 30.09 in 10.0 mi SSE 13.8 mph 20.7 mph N/A   Clear
4:15 PM 73.4 °F 59.0 °F 61% 30.10 in 10.0 mi SSE 12.7 mph - N/A   Clear
4:35 PM 73.4 °F 60.8 °F 65% 30.12 in 10.0 mi SE 8.1 mph - N/A   Clear
4:55 PM 73.4 °F 59.0 °F 61% 30.11 in 10.0 mi SE 10.4 mph - N/A   Partly Cloudy
5:15 PM 73.4 °F 60.8 °F 65% 30.12 in 10.0 mi SSE 8.1 mph - N/A   Partly Cloudy
5:35 PM 75.2 °F 62.6 °F 65% 30.11 in 10.0 mi SSE 9.2 mph - N/A   Partly Cloudy
5:55 PM 75.2 °F 62.6 °F 65% 30.10 in 10.0 mi SSE 9.2 mph 15.0 mph N/A   Partly Cloudy
6:15 PM 75.2 °F 62.6 °F 65% 30.10 in 10.0 mi SSE 5.8 mph - N/A   Clear
6:35 PM 75.2 °F 62.6 °F 65% 30.10 in 10.0 mi SE 8.1 mph - N/A   Partly Cloudy
6:55 PM 75.2 °F 64.4 °F 69% 30.11 in 10.0 mi SSE 6.9 mph - N/A   Partly Cloudy
7:15 PM 75.2 °F 64.4 °F 69% 30.11 in - SE 5.8 mph - N/A   Clear
7:35 PM 73.4 °F 64.4 °F 73% 30.10 in 10.0 mi SE 5.8 mph - N/A   Clear
7:55 PM 73.4 °F 64.4 °F 73% 30.10 in 10.0 mi SE 3.5 mph - N/A   Clear
8:15 PM 71.6 °F 66.2 °F 83% 30.10 in 10.0 mi ESE 3.5 mph - N/A   Partly Cloudy
8:35 PM 71.6 °F 64.4 °F 78% 30.10 in 10.0 mi ESE 5.8 mph - N/A   Mostly Cloudy
8:55 PM 71.6 °F 64.4 °F 78% 30.10 in 10.0 mi ESE 6.9 mph - N/A   Overcast
9:15 PM 71.6 °F 64.4 °F 78% 30.11 in 10.0 mi ESE 5.8 mph - N/A   Overcast
9:35 PM 71.6 °F 64.4 °F 78% 30.11 in 10.0 mi ESE 6.9 mph - N/A   Overcast
9:55 PM 71.6 °F 64.4 °F 78% 30.11 in 10.0 mi ESE 6.9 mph - N/A   Overcast
10:15 PM 71.6 °F 64.4 °F 78% 30.12 in 10.0 mi SE 8.1 mph - N/A   Overcast
10:35 PM 69.8 °F 62.6 °F 78% 30.12 in 10.0 mi SE 6.9 mph - N/A   Mostly Cloudy
10:55 PM 69.8 °F 62.6 °F 78% 30.12 in 10.0 mi SE 6.9 mph - N/A   Mostly Cloudy
11:15 PM 68.0 °F 62.6 °F 83% 30.12 in 10.0 mi SE 5.8 mph - N/A   Scattered Clouds
11:35 PM 66.2 °F 62.6 °F 88% 30.12 in 10.0 mi SE 8.1 mph - N/A   Clear
11:55 PM 68.0 °F 62.6 °F 83% 30.13 in 10.0 mi SE 8.1 mph - N/A   Clear